Time,TemperatureF,DewpointF,PressureIn,WindDirection,WindDirectionDegrees,WindSpeedMPH,WindSpeedGustMPH,Humidity,HourlyPrecipIn,Conditions,Clouds,dailyrainin,SoftwareType,DateUTC
2013-02-03 00:04:00,28.0,23.6,30.28,North,-999,0.0,0.0,83,0.00,,,0.00,pywws,2013-02-03 00:04:00,
2013-02-03 00:09:00,28.2,23.7,30.28,West,270,0.7,1.6,83,0.00,,,0.00,pywws,2013-02-03 00:09:00,
2013-02-03 00:14:00,28.6,24.1,30.29,North,-999,0.0,0.7,83,0.00,,,0.00,pywws,2013-02-03 00:14:00,
2013-02-03 00:19:00,28.9,24.4,30.29,North,-999,0.0,0.0,83,0.00,,,0.00,pywws,2013-02-03 00:19:00,
2013-02-03 00:24:00,28.6,23.8,30.28,North,-999,0.0,0.0,82,0.00,,,0.00,pywws,2013-02-03 00:24:00,
2013-02-03 00:34:00,28.8,24.0,30.29,North,-999,0.0,0.0,82,0.00,,,0.00,pywws,2013-02-03 00:34:00,
2013-02-03 00:39:00,28.6,23.8,30.28,North,-999,0.0,0.0,82,0.00,,,0.00,pywws,2013-02-03 00:39:00,
2013-02-03 00:44:00,28.4,23.6,30.29,North,-999,0.0,0.0,82,0.00,,,0.00,pywws,2013-02-03 00:44:00,
2013-02-03 00:49:00,28.4,23.6,30.29,North,-999,0.0,0.0,82,0.00,,,0.00,pywws,2013-02-03 00:49:00,
2013-02-03 00:54:00,28.4,23.6,30.29,North,-999,0.0,0.0,82,0.00,,,0.00,pywws,2013-02-03 00:54:00,
2013-02-03 01:04:00,28.4,23.6,30.28,North,-999,0.0,0.0,82,0.00,,,0.00,pywws,2013-02-03 01:04:00,
2013-02-03 01:09:00,28.2,23.4,30.29,North,-999,0.0,0.0,82,0.00,,,0.00,pywws,2013-02-03 01:09:00,
2013-02-03 01:14:00,28.4,23.6,30.29,North,-999,0.0,0.0,82,0.00,,,0.00,pywws,2013-02-03 01:14:00,
2013-02-03 01:19:00,28.0,23.3,30.29,North,-999,0.0,0.0,82,0.00,,,0.00,pywws,2013-02-03 01:19:00,
2013-02-03 01:24:00,27.7,22.9,30.29,North,-999,0.0,0.0,82,0.00,,,0.00,pywws,2013-02-03 01:24:00,
2013-02-03 01:34:00,27.9,23.4,30.29,North,-999,0.0,0.0,83,0.00,,,0.00,pywws,2013-02-03 01:34:00,
2013-02-03 01:39:00,28.0,23.6,30.28,North,-999,0.0,0.0,83,0.00,,,0.00,pywws,2013-02-03 01:39:00,
2013-02-03 01:44:00,28.0,23.6,30.29,North,-999,0.0,0.0,83,0.00,,,0.00,pywws,2013-02-03 01:44:00,
2013-02-03 01:49:00,28.0,23.6,30.29,North,-999,0.0,0.0,83,0.00,,,0.00,pywws,2013-02-03 01:49:00,
2013-02-03 01:54:00,28.0,23.6,30.29,North,-999,0.0,0.0,83,0.00,,,0.00,pywws,2013-02-03 01:54:00,
2013-02-03 02:04:00,28.0,23.6,30.28,North,-999,0.0,0.0,83,0.00,,,0.00,pywws,2013-02-03 02:04:00,
2013-02-03 02:09:00,28.0,23.6,30.29,North,-999,0.0,0.0,83,0.00,,,0.00,pywws,2013-02-03 02:09:00,
2013-02-03 02:14:00,28.0,23.8,30.28,North,-999,0.0,0.0,84,0.00,,,0.00,pywws,2013-02-03 02:14:00,
2013-02-03 02:19:00,28.2,24.0,30.28,North,-999,0.0,0.7,84,0.00,,,0.00,pywws,2013-02-03 02:19:00,
2013-02-03 02:24:00,28.2,24.0,30.28,North,-999,0.0,0.0,84,0.00,,,0.00,pywws,2013-02-03 02:24:00,
2013-02-03 02:34:00,28.4,24.2,30.27,North,-999,0.0,0.0,84,0.00,,,0.00,pywws,2013-02-03 02:34:00,
2013-02-03 02:39:00,28.4,24.2,30.27,North,-999,0.0,0.0,84,0.00,,,0.00,pywws,2013-02-03 02:39:00,
2013-02-03 02:44:00,28.0,23.8,30.27,North,-999,0.0,0.0,84,0.00,,,0.00,pywws,2013-02-03 02:44:00,
2013-02-03 02:49:00,28.4,24.2,30.27,North,-999,0.0,0.0,84,0.00,,,0.00,pywws,2013-02-03 02:49:00,
2013-02-03 02:54:00,28.4,24.2,30.27,North,-999,0.0,0.0,84,0.00,,,0.00,pywws,2013-02-03 02:54:00,
2013-02-03 03:04:00,28.8,24.8,30.26,North,-999,0.0,0.0,85,0.00,,,0.00,pywws,2013-02-03 03:04:00,
2013-02-03 03:09:00,28.6,24.7,30.26,North,-999,0.0,0.0,85,0.00,,,0.00,pywws,2013-02-03 03:09:00,
2013-02-03 03:14:00,28.6,24.7,30.26,North,-999,0.0,0.0,85,0.00,,,0.00,pywws,2013-02-03 03:14:00,
2013-02-03 03:19:00,28.8,24.8,30.25,North,-999,0.0,0.0,85,0.00,,,0.00,pywws,2013-02-03 03:19:00,
2013-02-03 03:24:00,28.8,24.8,30.25,North,-999,0.0,0.0,85,0.00,,,0.00,pywws,2013-02-03 03:24:00,
2013-02-03 03:34:00,28.9,25.0,30.25,North,-999,0.0,0.7,85,0.00,,,0.00,pywws,2013-02-03 03:34:00,
2013-02-03 03:39:00,29.3,25.4,30.25,North,-999,0.0,0.0,85,0.00,,,0.00,pywws,2013-02-03 03:39:00,
2013-02-03 03:44:00,29.5,25.5,30.25,North,-999,0.0,0.7,85,0.00,,,0.00,pywws,2013-02-03 03:44:00,
2013-02-03 03:49:00,29.5,25.5,30.26,North,-999,0.0,0.0,85,0.00,,,0.00,pywws,2013-02-03 03:49:00,
2013-02-03 03:54:00,29.8,25.9,30.26,North,-999,0.0,0.7,85,0.00,,,0.00,pywws,2013-02-03 03:54:00,
2013-02-03 04:04:00,30.2,26.2,30.25,North,-999,0.0,0.0,85,0.00,,,0.00,pywws,2013-02-03 04:04:00,
2013-02-03 04:09:00,30.4,26.4,30.26,North,-999,0.0,0.0,85,0.00,,,0.00,pywws,2013-02-03 04:09:00,
2013-02-03 04:14:00,30.4,26.4,30.26,North,-999,0.0,0.7,85,0.00,,,0.00,pywws,2013-02-03 04:14:00,
2013-02-03 04:19:00,30.6,26.6,30.25,North,-999,0.0,1.6,85,0.00,,,0.00,pywws,2013-02-03 04:19:00,
2013-02-03 04:24:00,30.7,26.5,30.26,North,-999,0.0,0.7,84,0.00,,,0.00,pywws,2013-02-03 04:24:00,
2013-02-03 04:34:00,30.9,26.7,30.26,North,-999,0.0,0.7,84,0.00,,,0.00,pywws,2013-02-03 04:34:00,
2013-02-03 04:39:00,30.9,26.7,30.27,North,-999,0.0,0.7,84,0.00,,,0.00,pywws,2013-02-03 04:39:00,
2013-02-03 04:44:00,31.1,26.8,30.27,North,-999,0.0,1.6,84,0.00,,,0.00,pywws,2013-02-03 04:44:00,
2013-02-03 04:49:00,30.9,26.7,30.27,North,-999,0.0,0.7,84,0.00,,,0.00,pywws,2013-02-03 04:49:00,
2013-02-03 04:54:00,31.1,26.8,30.26,North,-999,0.0,0.0,84,0.00,,,0.00,pywws,2013-02-03 04:54:00,
2013-02-03 05:04:00,31.1,26.6,30.26,North,-999,0.0,0.7,83,0.00,,,0.00,pywws,2013-02-03 05:04:00,
2013-02-03 05:09:00,31.3,26.7,30.25,North,-999,0.0,0.7,83,0.00,,,0.00,pywws,2013-02-03 05:09:00,
2013-02-03 05:14:00,31.5,26.9,30.24,North,-999,0.0,0.0,83,0.00,,,0.00,pywws,2013-02-03 05:14:00,
2013-02-03 05:19:00,31.3,26.7,30.24,North,-999,0.0,0.7,83,0.00,,,0.00,pywws,2013-02-03 05:19:00,
2013-02-03 05:24:00,31.5,26.9,30.24,North,-999,0.0,0.0,83,0.00,,,0.00,pywws,2013-02-03 05:24:00,
2013-02-03 05:34:00,31.3,26.7,30.24,North,-999,0.0,0.7,83,0.00,,,0.00,pywws,2013-02-03 05:34:00,
2013-02-03 05:39:00,31.8,27.3,30.24,SW,225,0.7,3.1,83,0.00,,,0.00,pywws,2013-02-03 05:39:00,
2013-02-03 05:44:00,32.0,27.4,30.23,North,-999,0.0,0.7,83,0.00,,,0.00,pywws,2013-02-03 05:44:00,
2013-02-03 05:49:00,32.0,27.4,30.23,North,-999,0.0,0.0,83,0.00,,,0.00,pywws,2013-02-03 05:49:00,
2013-02-03 05:54:00,31.8,27.3,30.23,North,-999,0.0,0.0,83,0.00,,,0.00,pywws,2013-02-03 05:54:00,
2013-02-03 06:04:00,32.0,27.7,30.22,North,-999,0.0,0.0,84,0.00,,,0.00,pywws,2013-02-03 06:04:00,
2013-02-03 06:09:00,32.4,28.1,30.20,North,-999,0.0,1.6,84,0.00,,,0.00,pywws,2013-02-03 06:09:00,
2013-02-03 06:14:00,32.5,28.3,30.20,North,-999,0.0,0.7,84,0.00,,,0.00,pywws,2013-02-03 06:14:00,
2013-02-03 06:19:00,32.7,28.4,30.19,North,-999,0.0,0.7,84,0.00,,,0.00,pywws,2013-02-03 06:19:00,
2013-02-03 06:24:00,32.7,28.4,30.19,North,-999,0.0,0.7,84,0.00,,,0.00,pywws,2013-02-03 06:24:00,
2013-02-03 06:34:00,32.9,28.3,30.18,North,-999,0.0,1.6,83,0.00,,,0.00,pywws,2013-02-03 06:34:00,
2013-02-03 06:39:00,33.1,28.5,30.18,North,-999,0.0,1.6,83,0.00,,,0.00,pywws,2013-02-03 06:39:00,
2013-02-03 06:44:00,33.3,28.7,30.18,SW,225,0.7,3.1,83,0.00,,,0.00,pywws,2013-02-03 06:44:00,
2013-02-03 06:49:00,33.3,28.7,30.18,North,-999,0.0,0.7,83,0.00,,,0.00,pywws,2013-02-03 06:49:00,
2013-02-03 06:54:00,33.3,28.7,30.18,North,-999,0.0,0.7,83,0.00,,,0.00,pywws,2013-02-03 06:54:00,
2013-02-03 07:04:00,33.3,28.7,30.18,North,-999,0.0,1.6,83,0.00,,,0.00,pywws,2013-02-03 07:04:00,
2013-02-03 07:09:00,33.4,28.8,30.19,North,-999,0.0,0.0,83,0.00,,,0.00,pywws,2013-02-03 07:09:00,
2013-02-03 07:14:00,33.4,28.8,30.19,North,-999,0.0,0.0,83,0.00,,,0.00,pywws,2013-02-03 07:14:00,
2013-02-03 07:19:00,33.4,28.8,30.18,North,-999,0.0,0.0,83,0.00,,,0.00,pywws,2013-02-03 07:19:00,
2013-02-03 07:24:00,33.6,29.0,30.19,North,-999,0.0,1.6,83,0.00,,,0.00,pywws,2013-02-03 07:24:00,
2013-02-03 07:34:00,33.8,29.5,30.19,South,180,0.7,2.2,84,0.00,,,0.00,pywws,2013-02-03 07:34:00,
2013-02-03 07:39:00,34.5,29.9,30.18,South,180,0.7,2.2,83,0.00,,,0.00,pywws,2013-02-03 07:39:00,
2013-02-03 07:44:00,34.9,30.0,30.18,West,270,0.7,2.2,82,0.00,,,0.00,pywws,2013-02-03 07:44:00,
2013-02-03 07:49:00,34.7,29.8,30.18,SW,225,0.7,3.1,82,0.00,,,0.00,pywws,2013-02-03 07:49:00,
2013-02-03 07:54:00,35.1,30.1,30.17,NW,315,0.7,3.1,82,0.00,,,0.00,pywws,2013-02-03 07:54:00,
2013-02-03 08:04:00,35.1,30.1,30.17,North,-999,0.0,2.2,82,0.00,,,0.00,pywws,2013-02-03 08:04:00,
2013-02-03 08:09:00,35.4,30.5,30.17,West,270,1.6,3.1,82,0.00,,,0.00,pywws,2013-02-03 08:09:00,
2013-02-03 08:14:00,35.6,30.7,30.16,North,-999,0.0,1.6,82,0.00,,,0.00,pywws,2013-02-03 08:14:00,
2013-02-03 08:19:00,35.6,30.4,30.17,SW,225,0.7,2.2,81,0.00,,,0.00,pywws,2013-02-03 08:19:00,
2013-02-03 08:24:00,35.6,30.4,30.16,North,0,0.7,2.2,81,0.00,,,0.00,pywws,2013-02-03 08:24:00,
2013-02-03 08:34:00,35.8,30.5,30.16,NW,315,0.7,2.2,81,0.00,,,0.00,pywws,2013-02-03 08:34:00,
2013-02-03 08:39:00,36.3,31.1,30.16,SW,225,0.7,3.1,81,0.00,,,0.00,pywws,2013-02-03 08:39:00,
2013-02-03 08:44:00,36.3,30.8,30.16,SW,225,0.7,1.6,80,0.00,,,0.00,pywws,2013-02-03 08:44:00,
2013-02-03 08:49:00,36.7,31.1,30.15,NW,315,0.7,2.2,80,0.00,,,0.00,pywws,2013-02-03 08:49:00,
2013-02-03 08:54:00,36.9,31.0,30.15,West,270,0.7,2.2,79,0.00,,,0.00,pywws,2013-02-03 08:54:00,
2013-02-03 09:04:00,37.0,31.1,30.15,West,270,2.2,6.0,79,0.00,,,0.00,pywws,2013-02-03 09:04:00,
2013-02-03 09:09:00,37.6,31.4,30.14,SW,225,1.6,3.8,78,0.00,,,0.00,pywws,2013-02-03 09:09:00,
2013-02-03 09:14:00,37.6,31.4,30.14,SW,225,1.6,3.1,78,0.00,,,0.00,pywws,2013-02-03 09:14:00,
2013-02-03 09:19:00,37.9,31.7,30.14,SW,225,1.6,3.1,78,0.00,,,0.00,pywws,2013-02-03 09:19:00,
2013-02-03 09:24:00,38.1,31.9,30.13,SE,135,1.6,4.5,78,0.00,,,0.00,pywws,2013-02-03 09:24:00,
2013-02-03 09:34:00,38.5,32.2,30.12,NW,315,0.7,3.8,78,0.00,,,0.00,pywws,2013-02-03 09:34:00,
2013-02-03 09:39:00,38.7,32.4,30.12,South,180,0.7,3.1,78,0.00,,,0.00,pywws,2013-02-03 09:39:00,
2013-02-03 09:44:00,38.5,32.2,30.12,SW,225,3.1,4.5,78,0.00,,,0.00,pywws,2013-02-03 09:44:00,
2013-02-03 09:49:00,38.8,32.6,30.11,South,180,0.7,2.2,78,0.00,,,0.00,pywws,2013-02-03 09:49:00,
2013-02-03 09:54:00,39.2,32.9,30.11,SW,225,2.2,6.0,78,0.00,,,0.00,pywws,2013-02-03 09:54:00,
2013-02-03 10:04:00,39.6,33.6,30.11,North,-999,0.0,3.8,79,0.00,,,0.00,pywws,2013-02-03 10:04:00,
2013-02-03 10:09:00,40.3,34.3,30.11,SW,225,0.7,3.8,79,0.00,,,0.00,pywws,2013-02-03 10:09:00,
2013-02-03 10:14:00,40.3,34.3,30.10,SE,135,0.7,3.8,79,0.00,,,0.00,pywws,2013-02-03 10:14:00,
2013-02-03 10:19:00,40.8,35.1,30.10,North,0,1.6,3.1,80,0.00,,,0.00,pywws,2013-02-03 10:19:00,
2013-02-03 10:24:00,41.2,35.2,30.09,South,180,1.6,3.8,79,0.00,,,0.00,pywws,2013-02-03 10:24:00,
2013-02-03 10:34:00,41.4,35.3,30.09,South,180,1.6,3.8,79,0.00,,,0.00,pywws,2013-02-03 10:34:00,
2013-02-03 10:39:00,41.7,35.7,30.08,SSW,202,3.1,6.9,79,0.00,,,0.00,pywws,2013-02-03 10:39:00,
2013-02-03 10:44:00,41.9,35.9,30.08,WNW,292,3.1,9.2,79,0.00,,,0.00,pywws,2013-02-03 10:44:00,
2013-02-03 10:49:00,41.7,35.7,30.08,SW,225,2.2,4.5,79,0.00,,,0.00,pywws,2013-02-03 10:49:00,
2013-02-03 10:54:00,41.9,35.9,30.07,South,180,2.2,5.4,79,0.00,,,0.00,pywws,2013-02-03 10:54:00,
2013-02-03 11:04:00,42.1,36.4,30.08,SW,225,2.2,3.8,80,0.00,,,0.00,pywws,2013-02-03 11:04:00,
2013-02-03 11:09:00,41.5,35.8,30.08,North,0,3.1,5.4,80,0.00,,,0.00,pywws,2013-02-03 11:09:00,
2013-02-03 11:14:00,42.3,36.5,30.08,NW,315,2.2,5.4,80,0.00,,,0.00,pywws,2013-02-03 11:14:00,
2013-02-03 11:19:00,41.7,36.0,30.07,SW,225,3.1,7.6,80,0.00,,,0.00,pywws,2013-02-03 11:19:00,
2013-02-03 11:24:00,41.9,36.2,30.07,South,180,1.6,3.8,80,0.00,,,0.00,pywws,2013-02-03 11:24:00,
2013-02-03 11:34:00,42.1,36.4,30.07,NW,315,2.2,5.4,80,0.00,,,0.00,pywws,2013-02-03 11:34:00,
2013-02-03 11:39:00,42.8,37.4,30.07,West,270,1.6,3.1,81,0.00,,,0.00,pywws,2013-02-03 11:39:00,
2013-02-03 11:44:00,42.4,37.0,30.06,West,270,3.1,4.5,81,0.00,,,0.00,pywws,2013-02-03 11:44:00,
2013-02-03 11:49:00,42.6,37.2,30.06,NW,315,1.6,5.4,81,0.00,,,0.00,pywws,2013-02-03 11:49:00,
2013-02-03 11:54:00,43.0,37.9,30.05,West,270,2.2,3.8,82,0.00,,,0.00,pywws,2013-02-03 11:54:00,
2013-02-03 12:04:00,43.0,37.9,30.06,SW,225,2.2,5.4,82,0.00,,,0.00,pywws,2013-02-03 12:04:00,
2013-02-03 12:09:00,43.3,38.2,30.05,SW,225,2.2,4.5,82,0.00,,,0.00,pywws,2013-02-03 12:09:00,
2013-02-03 12:14:00,43.2,38.0,30.05,SW,225,2.2,4.5,82,0.00,,,0.00,pywws,2013-02-03 12:14:00,
2013-02-03 12:19:00,43.3,38.2,30.05,NW,315,2.2,4.5,82,0.00,,,0.00,pywws,2013-02-03 12:19:00,
2013-02-03 12:24:00,43.5,38.4,30.05,SW,225,0.7,4.5,82,0.00,,,0.00,pywws,2013-02-03 12:24:00,
2013-02-03 12:34:00,43.7,38.6,30.04,South,180,0.7,2.2,82,0.00,,,0.00,pywws,2013-02-03 12:34:00,
2013-02-03 12:39:00,43.5,38.7,30.04,West,270,0.7,3.8,83,0.00,,,0.00,pywws,2013-02-03 12:39:00,
2013-02-03 12:44:00,43.5,38.7,30.03,West,270,1.6,3.1,83,0.00,,,0.00,pywws,2013-02-03 12:44:00,
2013-02-03 12:49:00,43.9,39.1,30.03,South,180,1.6,3.1,83,0.00,,,0.00,pywws,2013-02-03 12:49:00,
2013-02-03 12:54:00,44.1,39.2,30.03,North,-999,0.0,1.6,83,0.00,,,0.00,pywws,2013-02-03 12:54:00,
2013-02-03 13:04:00,44.2,39.4,30.03,SW,225,0.7,3.8,83,0.00,,,0.00,pywws,2013-02-03 13:04:00,
2013-02-03 13:09:00,44.6,39.8,30.03,NW,315,1.6,4.5,83,0.00,,,0.00,pywws,2013-02-03 13:09:00,
2013-02-03 13:14:00,44.6,39.8,30.03,West,270,1.6,3.1,83,0.00,,,0.00,pywws,2013-02-03 13:14:00,
2013-02-03 13:19:00,45.0,40.1,30.02,North,0,0.7,3.1,83,0.00,,,0.00,pywws,2013-02-03 13:19:00,
2013-02-03 13:24:00,45.1,40.3,30.02,West,270,1.6,3.8,83,0.00,,,0.00,pywws,2013-02-03 13:24:00,
2013-02-03 13:34:00,45.1,40.3,30.02,WNW,292,0.7,2.2,83,0.00,,,0.00,pywws,2013-02-03 13:34:00,
2013-02-03 13:39:00,44.8,39.9,30.01,North,-999,0.0,2.2,83,0.00,,,0.00,pywws,2013-02-03 13:39:00,
2013-02-03 13:44:00,45.0,40.1,30.01,NW,315,1.6,5.4,83,0.00,,,0.00,pywws,2013-02-03 13:44:00,
2013-02-03 13:49:00,45.0,40.1,30.01,North,-999,0.0,1.6,83,0.00,,,0.00,pywws,2013-02-03 13:49:00,
2013-02-03 13:54:00,45.1,40.6,30.01,SW,225,0.7,2.2,84,0.00,,,0.00,pywws,2013-02-03 13:54:00,
2013-02-03 14:04:00,45.0,40.4,30.01,SW,225,1.6,3.1,84,0.00,,,0.00,pywws,2013-02-03 14:04:00,
2013-02-03 14:09:00,45.1,40.6,30.01,North,-999,0.0,1.6,84,0.00,,,0.00,pywws,2013-02-03 14:09:00,
2013-02-03 14:14:00,45.3,40.8,30.01,North,-999,0.0,1.6,84,0.00,,,0.00,pywws,2013-02-03 14:14:00,
2013-02-03 14:19:00,45.1,40.6,30.01,West,270,0.7,3.8,84,0.00,,,0.00,pywws,2013-02-03 14:19:00,
2013-02-03 14:24:00,45.3,40.8,30.01,North,-999,0.0,0.0,84,0.00,,,0.00,pywws,2013-02-03 14:24:00,
2013-02-03 14:34:00,45.1,40.6,30.01,North,-999,0.0,1.6,84,0.00,,,0.00,pywws,2013-02-03 14:34:00,
2013-02-03 14:39:00,45.3,40.8,30.01,North,-999,0.0,0.0,84,0.00,,,0.00,pywws,2013-02-03 14:39:00,
2013-02-03 14:44:00,45.1,40.6,30.01,North,-999,0.0,2.2,84,0.00,,,0.00,pywws,2013-02-03 14:44:00,
2013-02-03 14:49:00,45.3,40.8,30.01,North,-999,0.0,0.0,84,0.00,,,0.00,pywws,2013-02-03 14:49:00,
2013-02-03 14:54:00,45.3,40.8,30.01,North,-999,0.0,0.0,84,0.00,,,0.00,pywws,2013-02-03 14:54:00,
2013-02-03 15:04:00,45.3,41.1,30.01,North,-999,0.0,0.0,85,0.00,,,0.00,pywws,2013-02-03 15:04:00,
2013-02-03 15:09:00,45.7,41.4,30.01,North,-999,0.0,0.0,85,0.00,,,0.00,pywws,2013-02-03 15:09:00,
2013-02-03 15:14:00,51.6,47.3,30.01,North,-999,0.0,0.7,85,0.00,,,0.00,pywws,2013-02-03 15:14:00,
2013-02-03 15:19:00,45.5,41.3,30.01,North,-999,0.0,1.6,85,0.00,,,0.00,pywws,2013-02-03 15:19:00,
2013-02-03 15:24:00,45.5,41.3,30.01,North,-999,0.0,0.7,85,0.00,,,0.00,pywws,2013-02-03 15:24:00,
2013-02-03 15:34:00,45.7,41.4,30.01,North,-999,0.0,0.7,85,0.00,,,0.00,pywws,2013-02-03 15:34:00,
2013-02-03 15:39:00,45.5,41.6,30.01,North,-999,0.0,0.7,86,0.00,,,0.00,pywws,2013-02-03 15:39:00,
2013-02-03 15:44:00,45.7,41.7,30.01,SW,225,0.7,2.2,86,0.00,,,0.00,pywws,2013-02-03 15:44:00,
2013-02-03 15:49:00,45.9,41.9,30.01,North,-999,0.0,1.6,86,0.00,,,0.00,pywws,2013-02-03 15:49:00,
2013-02-03 15:54:00,45.7,41.7,30.01,North,-999,0.0,0.0,86,0.00,,,0.00,pywws,2013-02-03 15:54:00,
2013-02-03 16:04:00,45.7,41.7,30.01,North,-999,0.0,0.7,86,0.00,,,0.00,pywws,2013-02-03 16:04:00,
2013-02-03 16:09:00,45.9,42.2,30.01,North,-999,0.0,0.7,87,0.00,,,0.00,pywws,2013-02-03 16:09:00,
2013-02-03 16:14:00,46.0,42.4,30.00,North,-999,0.0,1.6,87,0.00,,,0.00,pywws,2013-02-03 16:14:00,
2013-02-03 16:19:00,46.0,42.4,30.00,North,-999,0.0,0.7,87,0.00,,,0.00,pywws,2013-02-03 16:19:00,
2013-02-03 16:24:00,46.2,42.6,30.00,North,-999,0.0,0.7,87,0.00,,,0.00,pywws,2013-02-03 16:24:00,
2013-02-03 16:34:00,46.0,42.4,30.00,North,-999,0.0,0.7,87,0.00,,,0.00,pywws,2013-02-03 16:34:00,
2013-02-03 16:39:00,46.2,42.6,29.99,North,-999,0.0,0.7,87,0.00,,,0.00,pywws,2013-02-03 16:39:00,
2013-02-03 16:44:00,46.0,42.4,30.00,North,-999,0.0,0.7,87,0.00,,,0.00,pywws,2013-02-03 16:44:00,
2013-02-03 16:49:00,46.2,42.6,30.00,North,-999,0.0,0.7,87,0.00,,,0.00,pywws,2013-02-03 16:49:00,
2013-02-03 16:54:00,46.2,42.6,30.00,North,-999,0.0,0.7,87,0.00,,,0.00,pywws,2013-02-03 16:54:00,
2013-02-03 17:04:00,46.2,42.6,30.00,North,-999,0.0,0.0,87,0.00,,,0.00,pywws,2013-02-03 17:04:00,
2013-02-03 17:09:00,46.2,42.6,30.00,North,-999,0.0,0.7,87,0.00,,,0.00,pywws,2013-02-03 17:09:00,
2013-02-03 17:14:00,46.2,42.6,30.00,North,-999,0.0,0.0,87,0.00,,,0.00,pywws,2013-02-03 17:14:00,
2013-02-03 17:19:00,46.0,42.7,30.00,North,-999,0.0,0.0,88,0.00,,,0.00,pywws,2013-02-03 17:19:00,
2013-02-03 17:24:00,46.2,42.9,30.00,North,-999,0.0,0.7,88,0.00,,,0.00,pywws,2013-02-03 17:24:00,
2013-02-03 17:34:00,46.2,42.9,29.99,North,-999,0.0,0.0,88,0.00,,,0.00,pywws,2013-02-03 17:34:00,
2013-02-03 17:39:00,45.9,42.5,30.00,North,-999,0.0,0.0,88,0.00,,,0.00,pywws,2013-02-03 17:39:00,
2013-02-03 17:44:00,46.0,42.7,30.00,North,-999,0.0,0.7,88,0.00,,,0.00,pywws,2013-02-03 17:44:00,
2013-02-03 17:49:00,46.0,42.7,30.00,North,-999,0.0,0.0,88,0.00,,,0.00,pywws,2013-02-03 17:49:00,
2013-02-03 17:54:00,46.0,42.7,29.99,North,-999,0.0,0.0,88,0.00,,,0.00,pywws,2013-02-03 17:54:00,
2013-02-03 18:04:00,46.0,42.7,29.99,North,-999,0.0,0.7,88,0.00,,,0.00,pywws,2013-02-03 18:04:00,
2013-02-03 18:09:00,46.4,43.3,29.99,North,-999,0.0,1.6,89,0.00,,,0.00,pywws,2013-02-03 18:09:00,
2013-02-03 18:14:00,46.6,43.5,29.99,North,-999,0.0,0.7,89,0.00,,,0.00,pywws,2013-02-03 18:14:00,
2013-02-03 18:19:00,46.6,43.8,29.99,North,-999,0.0,0.7,90,0.00,,,0.00,pywws,2013-02-03 18:19:00,
2013-02-03 18:24:00,46.8,44.0,29.98,North,-999,0.0,0.7,90,0.00,,,0.00,pywws,2013-02-03 18:24:00,
2013-02-03 18:34:00,46.8,44.0,29.99,North,-999,0.0,0.7,90,0.00,,,0.00,pywws,2013-02-03 18:34:00,
2013-02-03 18:39:00,47.1,44.3,30.00,North,-999,0.0,1.6,90,0.00,,,0.00,pywws,2013-02-03 18:39:00,
2013-02-03 18:44:00,47.3,44.5,29.99,North,-999,0.0,1.6,90,0.00,,,0.00,pywws,2013-02-03 18:44:00,
2013-02-03 18:49:00,47.1,44.3,29.99,North,-999,0.0,1.6,90,0.00,,,0.00,pywws,2013-02-03 18:49:00,
2013-02-03 18:54:00,47.3,44.5,29.98,West,270,0.7,2.2,90,0.00,,,0.00,pywws,2013-02-03 18:54:00,
2013-02-03 19:04:00,47.5,44.7,29.98,North,-999,0.0,2.2,90,0.00,,,0.00,pywws,2013-02-03 19:04:00,
2013-02-03 19:09:00,47.5,44.4,29.98,SW,225,0.7,2.2,89,0.00,,,0.00,pywws,2013-02-03 19:09:00,
2013-02-03 19:14:00,47.5,44.4,29.98,West,270,1.6,3.8,89,0.00,,,0.00,pywws,2013-02-03 19:14:00,
2013-02-03 19:19:00,47.7,44.6,29.98,South,180,0.7,2.2,89,0.00,,,0.00,pywws,2013-02-03 19:19:00,
2013-02-03 19:24:00,48.0,44.9,29.98,SW,225,1.6,3.1,89,0.00,,,0.00,pywws,2013-02-03 19:24:00,
2013-02-03 19:34:00,47.7,44.6,29.98,North,-999,0.0,0.7,89,0.00,,,0.00,pywws,2013-02-03 19:34:00,
2013-02-03 19:38:00,47.7,44.6,29.98,North,-999,0.0,1.6,89,0.00,,,0.00,pywws,2013-02-03 19:38:00,
2013-02-03 19:43:00,47.7,44.6,29.98,North,-999,0.0,1.6,89,0.00,,,0.00,pywws,2013-02-03 19:43:00,
2013-02-03 19:48:00,47.5,44.4,29.98,North,-999,0.0,3.1,89,0.00,,,0.00,pywws,2013-02-03 19:48:00,
2013-02-03 19:53:00,47.5,44.4,29.98,North,-999,0.0,1.6,89,0.00,,,0.00,pywws,2013-02-03 19:53:00,
2013-02-03 20:04:00,47.5,44.4,29.98,North,-999,0.0,1.6,89,0.00,,,0.00,pywws,2013-02-03 20:04:00,
2013-02-03 20:08:00,47.3,44.2,29.98,North,-999,0.0,1.6,89,0.00,,,0.00,pywws,2013-02-03 20:08:00,
2013-02-03 20:13:00,47.3,44.2,29.98,SW,225,0.7,1.6,89,0.00,,,0.00,pywws,2013-02-03 20:13:00,
2013-02-03 20:18:00,47.3,44.2,29.98,North,-999,0.0,0.0,89,0.00,,,0.00,pywws,2013-02-03 20:18:00,
2013-02-03 20:23:00,47.1,44.0,29.98,North,-999,0.0,0.7,89,0.00,,,0.00,pywws,2013-02-03 20:23:00,
2013-02-03 20:28:00,47.1,44.0,29.98,North,-999,0.0,1.6,89,0.00,,,0.00,pywws,2013-02-03 20:28:00,
2013-02-03 20:33:00,47.1,44.0,29.98,North,-999,0.0,0.7,89,0.00,,,0.00,pywws,2013-02-03 20:33:00,
2013-02-03 20:38:00,47.1,44.0,29.97,North,-999,0.0,1.6,89,0.00,,,0.00,pywws,2013-02-03 20:38:00,
2013-02-03 20:43:00,47.1,44.0,29.97,North,-999,0.0,0.7,89,0.00,,,0.00,pywws,2013-02-03 20:43:00,
2013-02-03 20:48:00,47.1,44.0,29.98,North,-999,0.0,2.2,89,0.00,,,0.00,pywws,2013-02-03 20:48:00,
2013-02-03 20:53:00,47.1,44.0,29.98,North,-999,0.0,1.6,89,0.00,,,0.00,pywws,2013-02-03 20:53:00,
2013-02-03 21:04:00,47.1,44.0,29.97,North,-999,0.0,0.0,89,0.00,,,0.00,pywws,2013-02-03 21:04:00,
2013-02-03 21:09:00,47.1,44.0,29.96,South,180,0.7,3.1,89,0.00,,,0.00,pywws,2013-02-03 21:09:00,
2013-02-03 21:14:00,47.3,44.2,29.96,West,270,0.7,2.2,89,0.00,,,0.00,pywws,2013-02-03 21:14:00,
2013-02-03 21:19:00,47.5,44.4,29.96,South,180,0.7,1.6,89,0.00,,,0.00,pywws,2013-02-03 21:19:00,
2013-02-03 21:24:00,47.5,44.4,29.96,North,-999,0.0,3.1,89,0.00,,,0.00,pywws,2013-02-03 21:24:00,
2013-02-03 21:34:00,47.5,44.4,29.97,North,-999,0.0,1.6,89,0.00,,,0.00,pywws,2013-02-03 21:34:00,
2013-02-03 21:39:00,47.7,44.6,29.96,North,-999,0.0,1.6,89,0.00,,,0.00,pywws,2013-02-03 21:39:00,
2013-02-03 21:44:00,47.7,44.3,29.96,WNW,292,0.7,3.1,88,0.00,,,0.00,pywws,2013-02-03 21:44:00,
2013-02-03 21:49:00,47.3,43.9,29.96,SW,225,0.7,3.1,88,0.00,,,0.00,pywws,2013-02-03 21:49:00,
2013-02-03 21:54:00,47.7,44.3,29.96,SW,225,0.7,1.6,88,0.00,,,0.00,pywws,2013-02-03 21:54:00,
2013-02-03 22:04:00,47.7,44.3,29.96,WNW,292,0.7,1.6,88,0.00,,,0.00,pywws,2013-02-03 22:04:00,
2013-02-03 22:09:00,47.5,44.1,29.96,SW,225,1.6,3.1,88,0.00,,,0.00,pywws,2013-02-03 22:09:00,
2013-02-03 22:14:00,54.7,51.2,29.96,SW,225,1.6,4.5,88,0.00,,,0.00,pywws,2013-02-03 22:14:00,
2013-02-03 22:19:00,47.3,43.9,29.96,NNE,22,0.7,2.2,88,0.00,,,0.00,pywws,2013-02-03 22:19:00,
2013-02-03 22:24:00,47.1,44.0,29.96,West,270,1.6,3.1,89,0.00,,,0.00,pywws,2013-02-03 22:24:00,
2013-02-03 22:34:00,47.3,44.2,29.96,SW,225,0.7,3.8,89,0.00,,,0.00,pywws,2013-02-03 22:34:00,
2013-02-03 22:39:00,47.5,44.4,29.96,NW,315,1.6,3.8,89,0.00,,,0.00,pywws,2013-02-03 22:39:00,
2013-02-03 22:44:00,47.5,44.4,29.95,South,180,0.7,2.2,89,0.00,,,0.00,pywws,2013-02-03 22:44:00,
2013-02-03 22:49:00,47.7,44.6,29.95,SW,225,0.7,2.2,89,0.00,,,0.00,pywws,2013-02-03 22:49:00,
2013-02-03 22:54:00,48.0,44.9,29.95,SW,225,0.7,2.2,89,0.00,,,0.00,pywws,2013-02-03 22:54:00,
2013-02-03 23:04:00,47.8,44.8,29.95,West,270,1.6,2.2,89,0.00,,,0.00,pywws,2013-02-03 23:04:00,
2013-02-03 23:09:00,47.8,44.8,29.95,SW,225,1.6,3.1,89,0.00,,,0.00,pywws,2013-02-03 23:09:00,
2013-02-03 23:14:00,48.0,44.6,29.95,SE,135,0.7,3.8,88,0.00,,,0.00,pywws,2013-02-03 23:14:00,
2013-02-03 23:19:00,47.8,44.5,29.95,North,-999,0.0,2.2,88,0.00,,,0.00,pywws,2013-02-03 23:19:00,
2013-02-03 23:24:00,48.2,45.1,29.94,West,270,1.6,2.2,89,0.00,,,0.00,pywws,2013-02-03 23:24:00,
2013-02-03 23:34:00,47.8,44.5,29.94,NNE,22,1.6,3.1,88,0.00,,,0.00,pywws,2013-02-03 23:34:00,
2013-02-03 23:38:00,48.2,44.8,29.94,SE,135,0.7,2.2,88,0.00,,,0.00,pywws,2013-02-03 23:38:00,
2013-02-03 23:43:00,48.0,44.6,29.93,South,180,1.6,4.5,88,0.00,,,0.00,pywws,2013-02-03 23:43:00,
2013-02-03 23:48:00,48.2,44.8,29.93,North,0,0.7,3.1,88,0.00,,,0.00,pywws,2013-02-03 23:48:00,
2013-02-03 23:53:00,48.0,44.6,29.93,South,180,0.7,3.8,88,0.00,,,0.00,pywws,2013-02-03 23:53:00,